Latest Coastal Weather Observations for Shark Bay Airport

IDW60701

Issued at 12:05 pm WST Sunday 21 September 2014 (issued every 10 minutes, with the page automatically refreshed every 10 minutes)

About coastal observations | Map of coastal stations | Coastal observations for WA | Marine services | Other Formats
Station Details ID: 006105 Name: SHARK BAY AIRPORT Lat: -25.89 Lon: 113.58 Height: 33.8 m
Data from the previous 72 hours. | See also: Recent months for locations in Western Australia
Date/Time
WST
Temp

°C
Wind Pressure Rain
since 9am
mm
Weather Cloud Vis
km
Sea
Height
m
Swell
Dir
 
Speed
knots
Gust
knots
hPa Trend Height
m
Period
s
Dir
21/12:00pm 19.0 W 20 29 1014.2 - 3.0 Recent precip. - - - - - -
21/11:57am 19.3 W 19 29 1014.3 - 3.0 - - - - - - -
21/11:30am 18.5 WSW 21 28 1014.7 - 2.8 - - - - - - -
21/11:03am 19.7 WSW 18 28 1014.0 - 1.2 - - - - - - -
21/11:00am 20.5 W 17 25 1013.5 - 0.6 - - - - - - -
21/10:54am 22.1 W 21 31 1013.4 - 0.0 - - - - - - -
21/10:48am 23.8 WNW 23 30 1013.7 - 0.0 - - - - - - -
21/10:30am 26.5 NW 22 34 1013.6 - 0.0 - - - - - - -
21/10:07am 25.4 NW 24 35 1013.7 - 0.0 - - - - - - -
21/10:00am 25.9 NW 23 32 1013.6 - 0.0 - - - - - - -
21/09:38am 25.3 NW 22 32 1013.9 - 0.0 - - - - - - -
21/09:30am 24.2 NW 21 30 1014.0 - 0.0 - - - - - - -
21/09:07am 23.7 NW 21 32 1013.9 - 0.0 - - - - - - -
21/09:00am 24.2 NNW 21 27 1013.7 - 0.2 - - - - - - -
21/08:41am 24.8 NNW 21 31 1013.5 - 0.2 - - - - - - -
21/08:30am 24.2 NNW 23 30 1013.2 - 0.2 - - - - - - -
21/08:13am 23.8 NNW 19 29 1013.3 - 0.2 - - - - - - -
21/08:00am 23.5 NNW 17 25 1013.3 - 0.2 - - - - - - -
21/07:30am 22.2 NNW 12 19 1013.4 - 0.2 - - - - - - -
21/07:00am 20.8 N 10 13 1013.0 - 0.2 - - - - - - -
21/06:30am 20.0 N 10 14 1012.8 - 0.2 - - - - - - -
21/06:00am 19.4 N 9 13 1012.8 - 0.2 - - - - - - -
21/05:30am 18.8 N 8 11 1012.5 - 0.2 - - - - - - -
21/05:00am 18.7 N 8 11 1012.2 - 0.2 - - - - - - -
21/04:30am 18.9 N 9 13 1011.7 - 0.2 - - - - - - -
21/04:00am 18.8 N 9 13 1012.1 - 0.2 - - - - - - -
21/03:30am 18.7 N 9 11 1012.2 - 0.2 - - - - - - -
21/03:00am 18.1 N 7 11 1012.8 - 0.2 - - - - - - -
21/02:30am 18.1 N 8 11 1012.6 - 0.2 - - - - - - -
21/02:00am 18.1 N 9 11 1012.9 - 0.2 - - - - - - -
21/01:30am 18.5 N 9 12 1012.9 - 0.2 - - - - - - -
21/01:00am 18.0 N 7 8 1013.2 - 0.2 - - - - - - -
21/12:30am 17.6 N 7 8 1013.7 - 0.2 - - - - - - -
21/12:00am 17.4 N 6 8 1014.0 - 0.2 - - - - - - -
 
Date/Time
WST
Temp

°C
Wind Pressure Rain
since 9am
mm
Weather Cloud Vis
km
Sea
Height
m
Swell
Dir
 
Speed
knots
Gust
knots
hPa Trend Height
m
Period
s
Dir
20/11:30pm 17.0 N 6 7 1014.3 - 0.2 - - - - - - -
20/11:00pm 16.7 N 6 7 1014.2 - 0.2 - - - - - - -
20/10:30pm 17.8 N 6 7 1014.6 - 0.2 - - - - - - -
20/10:00pm 17.8 NNW 6 6 1014.7 - 0.2 - - - - - - -
20/09:30pm 18.2 NNW 6 7 1014.8 - 0.2 - - - - - - -
20/09:00pm 18.7 NW 5 6 1014.9 - 0.2 - - - - - - -
20/08:30pm 19.8 WNW 6 7 1015.1 - 0.2 - - - - - - -
20/08:00pm 20.5 W 7 9 1015.0 - 0.2 - - - - - - -
20/07:30pm 21.0 W 7 9 1014.8 - 0.2 - - - - - - -
20/07:00pm 21.5 W 8 11 1014.5 - 0.2 - - - - - - -
20/06:30pm 22.2 W 8 11 1014.5 - 0.2 - - - - - - -
20/06:00pm 23.2 WNW 11 15 1014.4 - 0.2 - - - - - - -
20/05:30pm 24.5 WNW 13 18 1014.1 - 0.2 - - - - - - -
20/05:00pm 25.6 WNW 15 20 1014.2 - 0.2 - - - - - - -
20/04:30pm 27.3 NW 15 19 1014.2 - 0.2 - - - - - - -
20/04:00pm 28.0 WNW 15 19 1014.1 - 0.2 - - - - - - -
20/03:30pm 28.5 WNW 13 17 1013.7 - 0.2 - - - - - - -
20/03:00pm 28.5 WNW 16 21 1013.6 - 0.2 - - - - - - -
20/02:30pm 28.8 WNW 18 22 1013.5 - 0.2 - - - - - - -
20/02:00pm 31.0 WNW 15 19 1013.1 - 0.2 - - - - - - -
20/01:30pm 31.8 NW 15 20 1013.4 - 0.2 - - - - - - -
20/01:00pm 31.5 NW 10 16 1014.0 - 0.2 - - - - - - -
20/12:30pm 30.6 WNW 13 18 1014.5 - 0.2 - - - - - - -
20/12:00pm 29.9 NW 14 23 1014.9 - 0.2 - - - - - - -
20/11:30am 29.6 WNW 13 20 1015.2 - 0.2 - - - - - - -
20/11:00am 29.5 NW 12 18 1015.4 - 0.2 - - - - - - -
20/10:30am 28.2 NW 13 19 1015.4 - 0.2 - - - - - - -
20/10:00am 27.7 NW 14 17 1015.4 - 0.0 - - - - - - -
20/09:30am 27.1 NNW 11 15 1015.4 - 0.0 - - - - - - -
20/09:00am 25.3 NW 8 12 1015.2 - 0.0 - - - - - - -
20/08:30am 22.4 NW 9 11 1015.1 - 0.0 - - - - - - -
20/08:00am 21.0 NNW 6 8 1014.6 - 0.0 - - - - - - -
20/07:30am 19.6 NW 7 9 1014.2 - 0.0 - - - - - - -
20/07:00am 18.3 NNW 7 8 1014.0 - 0.0 - - - - - - -
20/06:30am 16.8 NW 7 8 1014.0 - 0.0 - - - - - - -
20/06:00am 16.4 NW 8 9 1013.9 - 0.0 - - - - - - -
20/05:30am 16.5 NW 8 9 1013.3 - 0.0 - - - - - - -
20/05:00am 16.1 WSW 6 7 1013.1 - 0.0 - - - - - - -
20/04:30am 16.8 W 6 6 1013.4 - 0.0 - - - - - - -
20/04:00am 17.1 WNW 6 7 1013.4 - 0.0 - - - - - - -
20/03:30am 17.2 W 7 7 1013.5 - 0.0 - - - - - - -
20/03:00am 17.0 W 6 7 1013.6 - 0.0 - - - - - - -
20/02:30am 17.1 W 6 7 1013.8 - 0.0 - - - - - - -
20/02:00am 17.9 SW 6 7 1013.8 - 0.0 - - - - - - -
20/01:30am 18.0 WSW 5 8 1014.3 - 0.0 - - - - - - -
20/01:00am 18.2 SSW 5 7 1014.4 - 0.0 - - - - - - -
20/12:30am 18.3 SW 5 7 1014.7 - 0.0 - - - - - - -
20/12:00am 18.4 SSW 5 6 1015.0 - 0.0 - - - - - - -
 
Date/Time
WST
Temp

°C
Wind Pressure Rain
since 9am
mm
Weather Cloud Vis
km
Sea
Height
m
Swell
Dir
 
Speed
knots
Gust
knots
hPa Trend Height
m
Period
s
Dir
19/11:30pm 18.7 S 8 9 1015.3 - 0.0 - - - - - - -
19/11:00pm 18.8 S 8 9 1015.8 - 0.0 - - - - - - -
19/10:30pm 18.7 S 7 8 1016.1 - 0.0 - - - - - - -
19/10:00pm 19.0 S 8 10 1016.3 - 0.0 - - - - - - -
19/09:30pm 19.3 S 7 11 1016.5 - 0.0 - - - - - - -
19/09:00pm 19.7 S 9 11 1016.4 - 0.0 - - - - - - -
19/08:30pm 20.1 S 9 12 1016.4 - 0.0 - - - - - - -
19/08:00pm 20.6 SSW 11 15 1016.3 - 0.0 - - - - - - -
19/07:30pm 21.2 SSW 11 15 1015.7 - 0.0 - - - - - - -
19/07:00pm 21.8 SSW 11 14 1015.5 - 0.0 - - - - - - -
19/06:30pm 22.3 SW 10 15 1015.2 - 0.0 - - - - - - -
19/06:00pm 23.5 SSW 11 14 1015.1 - 0.0 - - - - - - -
19/05:30pm 24.9 SW 12 16 1015.0 - 0.0 - - - - - - -
19/05:00pm 26.0 SW 13 16 1014.9 - 0.0 - - - - - - -
19/04:30pm 27.0 SW 13 17 1015.0 - 0.0 - - - - - - -
19/04:00pm 27.0 SW 12 15 1015.1 - 0.0 - - - - - - -
19/03:30pm 27.1 SW 11 15 1015.3 - 0.0 - - - - - - -
19/03:00pm 27.3 SW 11 15 1015.6 - 0.0 - - - - - - -
19/02:30pm 27.1 SW 11 14 1015.8 - 0.0 - - - - - - -
19/02:00pm 28.2 SW 10 13 1016.1 - 0.0 - - - - - - -
19/01:30pm 29.1 ESE 7 12 1016.6 - 0.0 - - - - - - -
19/01:00pm 28.3 ESE 8 12 1017.0 - 0.0 - - - - - - -
19/12:30pm 27.2 ESE 7 10 1017.5 - 0.0 - - - - - - -
19/12:00pm 26.1 ESE 9 13 1017.9 - 0.0 - - - - - - -
19/11:30am 24.9 ESE 9 14 1018.6 - 0.0 - - - - - - -
19/11:00am 24.6 ESE 10 15 1019.1 - 0.0 - - - - - - -
19/10:30am 23.8 ESE 10 15 1019.5 - 0.0 - - - - - - -
19/10:00am 22.8 E 11 13 1019.7 - 0.0 - - - - - - -
19/09:30am 21.2 SE 11 17 1020.0 - 0.0 - - - - - - -
19/09:00am 20.2 ESE 10 14 1020.3 - 0.0 - - - - - - -
19/08:30am 19.2 SE 11 16 1020.2 - 0.0 - - - - - - -
19/08:00am 18.1 SE 12 17 1020.2 - 0.0 - - - - - - -
19/07:30am 16.6 SSE 11 15 1020.2 - 0.0 - - - - - - -
19/07:00am 14.8 SSE 7 9 1020.1 - 0.0 - - - - - - -
19/06:30am 13.7 SSE 7 8 1019.7 - 0.0 - - - - - - -
19/06:00am 14.2 SSE 7 9 1019.4 - 0.0 - - - - - - -
19/05:30am 14.9 SE 7 9 1019.1 - 0.0 - - - - - - -
19/05:00am 15.3 SSE 8 11 1019.0 - 0.0 - - - - - - -
19/04:30am 15.6 SSE 8 11 1018.8 - 0.0 - - - - - - -
19/04:00am 15.9 SSE 9 13 1018.7 - 0.0 - - - - - - -
19/03:30am 15.9 SSE 9 13 1018.7 - 0.0 - - - - - - -
19/03:00am 15.9 SSE 7 9 1018.8 - 0.0 - - - - - - -
19/02:30am 16.3 SSE 7 9 1018.8 - 0.0 - - - - - - -
19/02:00am 16.7 SSE 8 11 1018.9 - 0.0 - - - - - - -
19/01:30am 16.7 SSE 8 11 1019.0 - 0.0 - - - - - - -
19/01:00am 16.9 SSE 9 13 1019.1 - 0.0 - - - - - - -
19/12:30am 16.5 SSE 7 10 1019.3 - 0.0 - - - - - - -
19/12:00am 16.2 SSE 6 8 1019.2 - 0.0 - - - - - - -
 
Date/Time
WST
Temp

°C
Wind Pressure Rain
since 9am
mm
Weather Cloud Vis
km
Sea
Height
m
Swell
Dir
 
Speed
knots
Gust
knots
hPa Trend Height
m
Period
s
Dir
18/11:30pm 16.7 S 6 7 1019.7 - 0.0 - - - - - - -
18/11:00pm 17.5 S 7 9 1019.8 - 0.0 - - - - - - -
18/10:30pm 17.9 S 8 10 1019.8 - 0.0 - - - - - - -
18/10:00pm 18.1 S 9 12 1019.9 - 0.0 - - - - - - -
18/09:30pm 18.6 S 10 14 1019.9 - 0.0 - - - - - - -
18/09:00pm 19.0 S 11 18 1019.9 - 0.0 - - - - - - -
18/08:30pm 19.1 S 11 16 1019.8 - 0.0 - - - - - - -
18/08:00pm 19.3 SSW 12 16 1019.5 - 0.0 - - - - - - -
18/07:30pm 19.5 SSW 11 17 1019.2 - 0.0 - - - - - - -
18/07:00pm 19.9 SSW 13 18 1018.9 - 0.0 - - - - - - -
18/06:30pm 20.4 SSW 12 16 1018.5 - 0.0 - - - - - - -
18/06:00pm 21.0 SW 13 18 1018.2 - 0.0 - - - - - - -
18/05:30pm 21.8 SW 15 20 1017.7 - 0.0 - - - - - - -
18/05:00pm 22.6 SW 15 20 1017.5 - 0.0 - - - - - - -
18/04:30pm 23.1 SW 15 20 1017.3 - 0.0 - - - - - - -
18/04:00pm 23.8 SW 16 21 1017.2 - 0.0 - - - - - - -
18/03:30pm 24.3 SW 15 22 1017.1 - 0.0 - - - - - - -
18/03:00pm 24.8 SW 15 20 1016.9 - 0.0 - - - - - - -
18/02:30pm 25.6 SW 14 19 1016.6 - 0.0 - - - - - - -
18/02:00pm 25.4 WSW 13 17 1016.7 - 0.0 - - - - - - -
18/01:30pm 25.3 SW 11 16 1017.1 - 0.0 - - - - - - -
18/01:00pm 25.5 SW 11 16 1017.3 - 0.0 - - - - - - -
18/12:30pm 25.8 SW 10 14 1017.7 - 0.0 - - - - - - -

Other Formats:

Comma delimited format used in spreadsheet applications
http://www.bom.gov.au/fwo/IDW60701/IDW60701.95402.axf

JavaScript Object Notation format (JSON) in row-major order
http://www.bom.gov.au/fwo/IDW60701/IDW60701.95402.json